createdAt,value
2019-02-23T00:01:22.044Z,39.79
2019-02-23T00:03:52.177Z,45.32
2019-02-23T00:06:29.773Z,43.54
2019-02-23T00:08:53.822Z,41.49
2019-02-23T00:11:27.674Z,42.29
2019-02-23T00:13:58.005Z,41.79
2019-02-23T00:16:28.109Z,42.49
2019-02-23T00:18:58.320Z,41.95
2019-02-23T00:21:28.237Z,40.99
2019-02-23T00:23:58.611Z,42.94
2019-02-23T00:26:29.141Z,41.39
2019-02-23T00:28:59.128Z,40.22
2019-02-23T00:31:30.430Z,41.03
2019-02-23T00:34:00.457Z,41.15
2019-02-23T00:36:30.490Z,42.26
2019-02-23T00:39:00.420Z,50.10
2019-02-23T00:41:30.673Z,51.64
2019-02-23T00:44:00.744Z,45.58
2019-02-23T00:46:31.261Z,43.68
2019-02-23T00:49:01.298Z,46.52
2019-02-23T00:51:31.356Z,44.23
2019-02-23T00:54:01.521Z,43.03
2019-02-23T00:56:31.527Z,42.39
2019-02-23T00:59:01.500Z,41.88
2019-02-23T01:01:31.465Z,42.78
2019-02-23T01:04:01.375Z,41.62
2019-02-23T01:06:31.704Z,40.86
2019-02-23T01:09:01.603Z,42.25
2019-02-23T01:11:31.640Z,41.37
2019-02-23T01:14:01.904Z,41.36
2019-02-23T01:16:31.876Z,41.85
2019-02-23T01:19:01.774Z,41.66
2019-02-23T01:21:32.179Z,41.69
2019-02-23T01:24:02.299Z,41.89
2019-02-23T01:26:33.053Z,41.55
2019-02-23T01:29:03.072Z,41.97
2019-02-23T01:31:33.043Z,40.73
2019-02-23T01:34:02.959Z,41.55
2019-02-23T01:36:33.065Z,42.62
2019-02-23T01:39:04.105Z,41.77
2019-02-23T01:41:34.146Z,41.46
2019-02-23T01:44:04.188Z,42.49
2019-02-23T01:46:34.184Z,42.15
2019-02-23T01:49:04.116Z,42.32
2019-02-23T01:51:34.305Z,43.05
2019-02-23T01:54:04.259Z,42.36
2019-02-23T01:56:34.232Z,42.76
2019-02-23T01:59:04.346Z,43.02
2019-02-23T02:01:34.355Z,43.13
2019-02-23T02:04:04.500Z,43.33
2019-02-23T02:06:34.480Z,44.30
2019-02-23T02:09:05.214Z,44.31
2019-02-23T02:11:35.716Z,43.71
2019-02-23T02:14:05.987Z,43.22
2019-02-23T02:16:35.959Z,42.84
2019-02-23T02:19:06.479Z,42.95
2019-02-23T02:21:36.468Z,43.24
2019-02-23T02:24:06.366Z,43.40
2019-02-23T02:26:36.866Z,43.79
2019-02-23T02:29:06.866Z,43.83
2019-02-23T02:31:36.868Z,44.23
2019-02-23T02:34:15.796Z,44.09
2019-02-23T02:36:45.939Z,44.78
2019-02-23T02:39:17.409Z,46.20
2019-02-23T02:41:47.728Z,46.22
2019-02-23T02:44:17.946Z,45.27
2019-02-23T02:46:48.097Z,44.47
2019-02-23T02:49:18.065Z,45.92
2019-02-23T02:51:48.215Z,45.57
2019-02-23T02:54:18.432Z,45.87
2019-02-23T02:56:48.314Z,44.23
2019-02-23T02:59:18.279Z,44.13
2019-02-23T03:01:48.195Z,45.60
2019-02-23T03:04:18.466Z,44.57
2019-02-23T03:06:48.708Z,43.98
2019-02-23T03:09:18.853Z,44.25
2019-02-23T03:11:48.779Z,44.21
2019-02-23T03:14:18.697Z,44.17
2019-02-23T03:16:49.040Z,44.11
2019-02-23T03:19:18.964Z,44.45
2019-02-23T03:21:48.891Z,44.21
2019-02-23T03:24:18.788Z,44.30
2019-02-23T03:26:48.683Z,44.61
2019-02-23T03:29:18.578Z,44.41
2019-02-23T03:31:48.507Z,45.56
2019-02-23T03:34:18.641Z,45.07
2019-02-23T03:36:48.733Z,45.09
2019-02-23T03:39:18.623Z,45.08
2019-02-23T03:41:48.821Z,44.56
2019-02-23T03:44:19.093Z,45.14
2019-02-23T03:46:51.279Z,44.81
2019-02-23T03:49:21.197Z,44.81
2019-02-23T03:51:51.134Z,44.96
2019-02-23T03:54:21.488Z,44.91
2019-02-23T03:56:51.409Z,44.79
2019-02-23T03:59:22.229Z,44.45
2019-02-23T04:01:52.199Z,45.18
2019-02-23T04:04:22.112Z,45.09
2019-02-23T04:06:52.521Z,45.29
2019-02-23T04:09:22.659Z,45.15
2019-02-23T04:11:52.759Z,44.82
2019-02-23T04:14:22.697Z,44.91
2019-02-23T04:16:52.622Z,44.90
2019-02-23T04:19:22.534Z,44.69
2019-02-23T04:21:52.697Z,44.32
2019-02-23T04:24:22.664Z,44.63
2019-02-23T04:26:52.536Z,45.74
2019-02-23T04:29:22.953Z,44.91
2019-02-23T04:31:52.845Z,45.22
2019-02-23T04:34:22.807Z,46.02
2019-02-23T04:36:52.808Z,44.89
2019-02-23T04:39:22.948Z,44.19
2019-02-23T04:41:52.840Z,43.99
2019-02-23T04:44:22.763Z,45.03
2019-02-23T04:46:52.674Z,47.05
2019-02-23T04:49:25.643Z,45.04
2019-02-23T04:51:54.190Z,44.83
2019-02-23T04:54:24.313Z,44.37
2019-02-23T04:56:54.207Z,44.67
2019-02-23T04:59:24.356Z,45.42
2019-02-23T05:01:54.510Z,44.65
2019-02-23T05:04:24.770Z,46.20
2019-02-23T05:06:55.272Z,45.71
2019-02-23T05:09:25.180Z,45.77
2019-02-23T05:11:55.190Z,47.00
2019-02-23T05:14:25.608Z,46.11
2019-02-23T05:16:55.568Z,48.34
2019-02-23T05:19:25.552Z,47.92
2019-02-23T05:21:55.461Z,45.62
2019-02-23T05:24:25.419Z,45.85
2019-02-23T05:26:55.669Z,44.38
2019-02-23T05:29:25.630Z,44.81
2019-02-23T05:31:55.669Z,43.93
2019-02-23T05:34:26.132Z,44.37
2019-02-23T05:36:56.037Z,44.53
2019-02-23T05:39:26.189Z,44.37
2019-02-23T05:41:56.328Z,44.12
2019-02-23T05:44:26.243Z,45.01
2019-02-23T05:46:56.174Z,45.49
2019-02-23T05:49:26.542Z,45.64
2019-02-23T05:51:56.741Z,46.56
2019-02-23T05:54:26.765Z,45.03
2019-02-23T05:56:57.408Z,45.53
2019-02-23T05:59:27.352Z,44.59
2019-02-23T06:01:57.273Z,44.33
2019-02-23T06:04:27.480Z,44.41
2019-02-23T06:06:57.414Z,44.77
2019-02-23T06:09:27.758Z,45.76
2019-02-23T06:11:57.814Z,44.19
2019-02-23T06:14:28.257Z,45.67
2019-02-23T06:16:58.175Z,44.57
2019-02-23T06:19:28.250Z,44.41
2019-02-23T06:21:58.467Z,44.18
2019-02-23T06:24:28.637Z,44.56
2019-02-23T06:27:00.199Z,45.45
2019-02-23T06:29:30.845Z,45.02
2019-02-23T06:32:00.724Z,45.40
2019-02-23T06:34:30.885Z,45.45
2019-02-23T06:37:01.090Z,46.79
2019-02-23T06:39:31.107Z,45.57
2019-02-23T06:42:01.588Z,45.33
2019-02-23T06:44:31.522Z,45.04
2019-02-23T06:47:01.431Z,45.37
2019-02-23T06:49:31.456Z,45.20
2019-02-23T06:52:04.550Z,44.60
2019-02-23T06:54:33.665Z,45.00
2019-02-23T06:57:03.969Z,45.37
2019-02-23T06:59:34.135Z,45.48
2019-02-23T07:02:04.890Z,45.22
2019-02-23T07:04:35.018Z,45.45
2019-02-23T07:07:05.005Z,44.83
2019-02-23T07:09:35.383Z,44.73
2019-02-23T07:12:05.605Z,44.96
2019-02-23T07:14:35.491Z,46.63
2019-02-23T07:17:05.432Z,48.64
2019-02-23T07:19:36.104Z,46.19
2019-02-23T07:22:15.160Z,45.16
2019-02-23T07:24:37.908Z,44.47
2019-02-23T07:27:08.227Z,44.63
2019-02-23T07:29:41.256Z,43.95
2019-02-23T07:32:11.184Z,44.51
2019-02-23T07:34:41.149Z,44.09
2019-02-23T07:37:11.088Z,44.37
2019-02-23T07:39:41.186Z,44.50
2019-02-23T07:42:11.393Z,44.47
2019-02-23T07:44:41.614Z,44.14
2019-02-23T07:47:11.683Z,43.87
2019-02-23T07:49:41.975Z,43.42
2019-02-23T07:52:12.303Z,44.84
2019-02-23T07:54:42.684Z,44.07
2019-02-23T07:57:12.588Z,43.79
2019-02-23T07:59:42.794Z,43.21
2019-02-23T08:02:13.056Z,43.58
2019-02-23T08:04:43.276Z,43.51
2019-02-23T08:07:13.525Z,43.01
2019-02-23T08:09:44.104Z,43.18
2019-02-23T08:12:14.015Z,42.68
2019-02-23T08:14:44.445Z,44.28
2019-02-23T08:17:14.738Z,46.21
2019-02-23T08:19:44.723Z,48.07
2019-02-23T08:22:14.688Z,44.91
2019-02-23T08:24:45.081Z,43.57
2019-02-23T08:27:15.317Z,44.54
2019-02-23T08:29:45.522Z,43.88
2019-02-23T08:32:15.723Z,41.91
2019-02-23T08:34:46.555Z,41.53
2019-02-23T08:37:16.839Z,41.08
2019-02-23T08:39:47.190Z,40.60
2019-02-23T08:42:17.686Z,40.01
2019-02-23T08:44:47.787Z,39.78
2019-02-23T08:47:18.007Z,39.81
2019-02-23T08:49:48.384Z,41.83
2019-02-23T08:52:19.696Z,41.33
2019-02-23T08:54:50.142Z,39.74
2019-02-23T08:57:20.176Z,39.63
2019-02-23T08:59:50.284Z,39.77
2019-02-23T09:02:21.079Z,39.30
2019-02-23T09:04:51.245Z,39.51
2019-02-23T09:07:21.585Z,38.62
2019-02-23T09:09:51.866Z,38.87
2019-02-23T09:12:21.887Z,39.20
2019-02-23T09:14:52.182Z,38.44
2019-02-23T09:17:22.836Z,37.65
2019-02-23T09:19:53.408Z,37.93
2019-02-23T09:22:23.983Z,38.08
2019-02-23T09:24:54.320Z,37.84
2019-02-23T09:27:24.500Z,38.00
2019-02-23T09:29:54.534Z,37.12
2019-02-23T09:32:24.655Z,36.62
2019-02-23T09:34:55.015Z,36.98
2019-02-23T09:37:25.277Z,35.80
2019-02-23T09:39:55.498Z,35.43
2019-02-23T09:42:25.592Z,36.15
2019-02-23T09:44:56.462Z,35.05
2019-02-23T09:47:26.930Z,38.38
2019-02-23T09:49:57.096Z,36.47
2019-02-23T09:52:27.556Z,36.64
2019-02-23T09:55:00.538Z,35.25
2019-02-23T09:57:30.617Z,32.90
2019-02-23T10:00:00.649Z,33.06
2019-02-23T10:02:31.073Z,33.28
2019-02-23T10:05:01.458Z,32.80
2019-02-23T10:07:31.947Z,31.57
2019-02-23T10:10:01.983Z,31.50
2019-02-23T10:12:32.309Z,35.40
2019-02-23T10:15:02.751Z,34.11
2019-02-23T10:17:32.960Z,33.78
2019-02-23T10:20:03.231Z,33.10
2019-02-23T10:22:33.443Z,32.35
2019-02-23T10:25:03.777Z,32.42
2019-02-23T10:27:34.692Z,31.40
2019-02-23T10:30:05.170Z,31.14
2019-02-23T10:32:35.378Z,30.94
2019-02-23T10:35:05.704Z,31.07
2019-02-23T10:37:35.830Z,31.84
2019-02-23T10:40:07.445Z,31.75
2019-02-23T10:42:38.194Z,31.04
2019-02-23T10:45:10.082Z,29.77
2019-02-23T10:47:43.447Z,29.13
2019-02-23T10:50:14.391Z,28.83
2019-02-23T10:52:44.828Z,28.05
2019-02-23T10:55:15.488Z,28.31
2019-02-23T10:57:46.208Z,27.72
2019-02-23T11:00:20.313Z,29.16
2019-02-23T11:02:50.684Z,28.18
2019-02-23T11:05:20.943Z,27.45
2019-02-23T11:07:51.265Z,27.06
2019-02-23T11:10:21.612Z,27.87
2019-02-23T11:12:51.661Z,28.83
2019-02-23T11:15:22.294Z,29.30
2019-02-23T11:17:52.345Z,27.57
2019-02-23T11:20:23.885Z,26.68
2019-02-23T11:22:53.958Z,25.92
2019-02-23T11:25:24.268Z,26.41
2019-02-23T11:27:54.257Z,26.59
2019-02-23T11:30:25.041Z,26.42
2019-02-23T11:32:55.575Z,26.82
2019-02-23T11:35:25.918Z,26.84
2019-02-23T11:37:56.504Z,27.02
2019-02-23T11:40:26.609Z,27.11
2019-02-23T11:42:56.835Z,27.41
2019-02-23T11:45:27.595Z,27.92
2019-02-23T11:47:57.649Z,28.30
2019-02-23T11:50:28.018Z,28.57
2019-02-23T11:52:57.955Z,28.70
2019-02-23T11:55:28.072Z,28.73
2019-02-23T11:57:58.378Z,29.29
2019-02-23T12:00:28.447Z,28.13
2019-02-23T12:02:58.413Z,28.43
2019-02-23T12:05:28.304Z,28.00
2019-02-23T12:07:58.314Z,28.08
2019-02-23T12:10:28.293Z,28.48
2019-02-23T12:12:58.502Z,28.75
2019-02-23T12:15:28.958Z,28.06
2019-02-23T12:17:58.906Z,28.21
2019-02-23T12:20:29.226Z,28.18
2019-02-23T12:22:59.227Z,27.68
2019-02-23T12:25:29.181Z,29.38
2019-02-23T12:27:59.588Z,30.83
2019-02-23T12:30:32.754Z,31.63
2019-02-23T12:33:02.524Z,30.07
2019-02-23T12:35:32.573Z,28.56
2019-02-23T12:38:03.302Z,27.21
2019-02-23T12:40:33.655Z,27.41
2019-02-23T12:43:04.050Z,26.34
2019-02-23T12:45:34.413Z,28.95
2019-02-23T12:48:04.347Z,29.12
2019-02-23T12:50:34.747Z,29.86
2019-02-23T12:53:04.717Z,28.34
2019-02-23T12:55:34.740Z,27.68
2019-02-23T12:58:04.937Z,27.62
2019-02-23T13:00:35.071Z,27.52
2019-02-23T13:03:05.267Z,27.91
2019-02-23T13:05:35.263Z,29.22
2019-02-23T13:08:05.329Z,29.09
2019-02-23T13:10:35.553Z,29.92
2019-02-23T13:14:00.149Z,28.12
2019-02-23T13:16:58.735Z,28.59
2019-02-23T13:19:57.982Z,28.14
2019-02-23T13:23:06.850Z,28.55
2019-02-23T13:26:15.940Z,27.34
2019-02-23T13:29:06.089Z,28.29
2019-02-23T13:32:43.693Z,28.28
2019-02-23T13:36:07.476Z,27.23
2019-02-23T13:39:23.792Z,28.88
2019-02-23T13:43:05.275Z,28.67
2019-02-23T13:46:15.979Z,30.24
2019-02-23T13:49:23.896Z,28.38
2019-02-23T13:52:32.679Z,27.99
2019-02-23T13:56:02.138Z,29.08
2019-02-23T13:59:33.732Z,28.65
2019-02-23T14:02:51.395Z,28.05
2019-02-23T14:06:11.483Z,28.84
2019-02-23T14:09:14.178Z,27.99
2019-02-23T14:12:11.249Z,29.70
2019-02-23T14:14:54.183Z,28.32
2019-02-23T14:18:17.547Z,28.32
2019-02-23T14:21:08.753Z,28.77
2019-02-23T14:24:08.884Z,28.07
2019-02-23T14:27:45.424Z,28.65
2019-02-23T14:31:22.110Z,28.41
2019-02-23T14:35:02.301Z,30.17
2019-02-23T14:38:01.206Z,31.90
2019-02-23T14:41:23.268Z,30.72
2019-02-23T14:44:51.202Z,30.48
2019-02-23T14:48:20.437Z,30.29
2019-02-23T14:51:50.764Z,28.94
2019-02-23T14:55:04.854Z,29.62
2019-02-23T14:58:21.386Z,29.34
2019-02-23T15:01:43.403Z,29.23
2019-02-23T15:05:11.804Z,28.94
2019-02-23T15:08:23.101Z,28.32
2019-02-23T15:12:02.852Z,28.18
2019-02-23T15:15:28.177Z,28.54
2019-02-23T15:18:35.654Z,28.86
2019-02-23T15:21:37.926Z,28.06
2019-02-23T15:24:59.456Z,28.74
2019-02-23T15:28:36.026Z,27.89
2019-02-23T15:31:29.559Z,27.44
2019-02-23T15:34:20.529Z,27.87
2019-02-23T15:37:14.769Z,28.16
2019-02-23T15:40:12.913Z,28.72
2019-02-23T15:43:33.833Z,30.58
2019-02-23T15:46:54.161Z,29.09
2019-02-23T15:49:30.064Z,29.03
2019-02-23T15:52:02.199Z,29.34
2019-02-23T15:54:32.183Z,29.52
2019-02-23T15:57:02.124Z,28.55
2019-02-23T15:59:32.263Z,28.55
2019-02-23T16:02:02.647Z,29.22
2019-02-23T16:04:32.623Z,29.17
2019-02-23T16:07:02.541Z,29.40
2019-02-23T16:09:32.533Z,29.47
2019-02-23T16:12:02.452Z,31.09
2019-02-23T16:14:32.764Z,30.36
2019-02-23T16:17:03.493Z,30.46
2019-02-23T16:19:33.692Z,29.68
2019-02-23T16:22:04.420Z,29.57
2019-02-23T16:24:34.509Z,29.74
2019-02-23T16:27:04.591Z,30.16
2019-02-23T16:29:38.724Z,30.00
2019-02-23T16:32:06.150Z,29.53
2019-02-23T16:34:36.161Z,29.60
2019-02-23T16:37:06.041Z,29.74
2019-02-23T16:39:36.136Z,29.51
2019-02-23T16:42:06.124Z,28.91
2019-02-23T16:44:36.141Z,28.96
2019-02-23T16:47:06.259Z,28.99
2019-02-23T16:49:36.199Z,29.73
2019-02-23T16:52:09.097Z,29.89
2019-02-23T16:54:38.176Z,29.28
2019-02-23T16:57:08.173Z,29.69
2019-02-23T16:59:38.436Z,30.42
2019-02-23T17:02:08.351Z,31.03
2019-02-23T17:04:38.275Z,31.44
2019-02-23T17:07:08.180Z,31.62
2019-02-23T17:09:38.113Z,32.33
2019-02-23T17:12:08.629Z,32.33
2019-02-23T17:14:38.615Z,32.74
2019-02-23T17:17:08.794Z,32.75
2019-02-23T17:19:38.723Z,33.49
2019-02-23T17:22:09.087Z,33.59
2019-02-23T17:24:38.981Z,33.91
2019-02-23T17:27:08.912Z,33.99
2019-02-23T17:29:38.802Z,33.87
2019-02-23T17:32:08.813Z,34.07
2019-02-23T17:34:38.718Z,35.09
2019-02-23T17:37:08.893Z,34.77
2019-02-23T17:39:38.886Z,34.40
2019-02-23T17:42:09.109Z,34.61
2019-02-23T17:44:39.038Z,35.20
2019-02-23T17:47:08.992Z,35.03
2019-02-23T17:49:38.965Z,35.24
2019-02-23T17:52:09.255Z,35.38
2019-02-23T17:54:39.704Z,35.28
2019-02-23T17:57:09.770Z,35.45
2019-02-23T17:59:39.699Z,35.79
2019-02-23T18:02:10.108Z,36.33
2019-02-23T18:04:40.073Z,36.10
2019-02-23T18:07:10.355Z,36.59
2019-02-23T18:09:40.602Z,36.46
2019-02-23T18:12:11.468Z,36.76
2019-02-23T18:14:42.026Z,36.90
2019-02-23T18:17:12.104Z,37.05
2019-02-23T18:19:42.281Z,37.05
2019-02-23T18:22:12.813Z,36.72
2019-02-23T18:24:43.051Z,36.97
2019-02-23T18:27:13.684Z,37.39
2019-02-23T18:29:43.705Z,37.19
2019-02-23T18:32:13.769Z,36.68
2019-02-23T18:34:44.388Z,37.02
2019-02-23T18:37:15.308Z,36.89
2019-02-23T18:39:45.365Z,36.67
2019-02-23T18:42:15.700Z,36.79
2019-02-23T18:44:45.744Z,36.96
2019-02-23T18:47:15.761Z,37.06
2019-02-23T18:49:45.994Z,37.55
2019-02-23T18:52:16.058Z,38.28
2019-02-23T18:54:46.313Z,37.43
2019-02-23T18:57:16.563Z,37.54
2019-02-23T18:59:46.483Z,37.04
2019-02-23T19:02:17.096Z,37.29
2019-02-23T19:04:47.503Z,37.71
2019-02-23T19:07:19.396Z,37.89
2019-02-23T19:09:49.840Z,38.09
2019-02-23T19:12:19.795Z,37.80
2019-02-23T19:14:49.723Z,37.69
2019-02-23T19:17:19.908Z,37.50
2019-02-23T19:19:49.923Z,37.74
2019-02-23T19:22:19.966Z,38.04
2019-02-23T19:24:49.886Z,37.80
2019-02-23T19:27:19.873Z,37.65
2019-02-23T19:29:50.175Z,37.68
2019-02-23T19:32:20.342Z,38.67
2019-02-23T19:34:50.391Z,38.17
2019-02-23T19:37:20.616Z,38.81
2019-02-23T19:39:50.715Z,37.96
2019-02-23T19:42:20.747Z,38.11
2019-02-23T19:44:53.202Z,39.12
2019-02-23T19:47:28.931Z,38.96
2019-02-23T19:50:04.865Z,38.94
2019-02-23T19:52:43.709Z,39.17
2019-02-23T19:55:17.366Z,38.06
2019-02-23T19:57:49.276Z,38.80
2019-02-23T20:00:21.238Z,38.24
2019-02-23T20:02:52.947Z,38.02
2019-02-23T20:05:24.529Z,37.36
2019-02-23T20:07:54.891Z,37.87
2019-02-23T20:10:25.385Z,37.63
2019-02-23T20:12:56.279Z,37.37
2019-02-23T20:15:26.363Z,37.74
2019-02-23T20:17:56.459Z,38.07
2019-02-23T20:20:29.456Z,37.38
2019-02-23T20:23:00.074Z,37.32
2019-02-23T20:25:30.396Z,37.53
2019-02-23T20:28:01.969Z,37.96
2019-02-23T20:30:32.678Z,38.23
2019-02-23T20:33:02.900Z,37.66
2019-02-23T20:35:33.011Z,38.21
2019-02-23T20:38:03.480Z,38.36
2019-02-23T20:40:36.163Z,40.05
2019-02-23T20:43:08.137Z,40.73
2019-02-23T20:45:40.591Z,39.13
2019-02-23T20:48:12.946Z,39.97
2019-02-23T20:50:44.491Z,39.07
2019-02-23T20:53:18.194Z,38.27
2019-02-23T20:55:50.668Z,39.62
2019-02-23T20:58:20.847Z,39.56
2019-02-23T21:00:52.689Z,39.15
2019-02-23T21:03:22.953Z,38.94
2019-02-23T21:05:53.231Z,39.13
2019-02-23T21:08:27.182Z,39.17
2019-02-23T21:10:59.074Z,38.52
2019-02-23T21:13:29.740Z,39.12
2019-02-23T21:16:00.986Z,38.84
2019-02-23T21:18:31.027Z,39.12
2019-02-23T21:21:01.014Z,38.83
2019-02-23T21:23:31.048Z,41.16
2019-02-23T21:26:01.253Z,40.54
2019-02-23T21:28:31.388Z,39.53
2019-02-23T21:31:01.329Z,39.65
2019-02-23T21:33:31.328Z,40.45
2019-02-23T21:36:04.737Z,40.99
2019-02-23T21:38:35.080Z,39.42
2019-02-23T21:41:05.037Z,39.70
2019-02-23T21:43:34.954Z,39.24
2019-02-23T21:46:05.047Z,39.91
2019-02-23T21:48:38.135Z,40.84
2019-02-23T21:51:08.374Z,40.46
2019-02-23T21:53:38.640Z,40.39
2019-02-23T21:56:08.873Z,40.10
2019-02-23T21:58:38.877Z,40.99
2019-02-23T22:01:08.952Z,40.16
2019-02-23T22:03:39.223Z,41.12
2019-02-23T22:06:09.225Z,40.83
2019-02-23T22:08:39.413Z,40.96
2019-02-23T22:11:09.715Z,40.79
2019-02-23T22:13:40.488Z,40.50
2019-02-23T22:16:10.654Z,40.21
2019-02-23T22:18:40.855Z,40.73
2019-02-23T22:21:10.948Z,39.49
2019-02-23T22:23:41.197Z,39.24
2019-02-23T22:26:11.978Z,39.40
2019-02-23T22:28:42.322Z,39.94
2019-02-23T22:31:12.774Z,40.34
2019-02-23T22:33:43.239Z,38.96
2019-02-23T22:36:13.585Z,39.05
2019-02-23T22:38:43.645Z,40.90
2019-02-23T22:41:13.946Z,40.24
2019-02-23T22:43:44.074Z,40.17
2019-02-23T22:46:14.183Z,39.52
2019-02-23T22:48:44.242Z,39.64
2019-02-23T22:51:14.347Z,40.19
2019-02-23T22:53:44.327Z,39.05
2019-02-23T22:56:14.675Z,39.42
2019-02-23T22:58:44.909Z,39.32
2019-02-23T23:01:15.537Z,39.18
2019-02-23T23:03:45.869Z,39.20
2019-02-23T23:06:16.132Z,38.39
2019-02-23T23:08:46.169Z,39.20
2019-02-23T23:11:16.478Z,38.63
2019-02-23T23:13:46.779Z,38.21
2019-02-23T23:16:17.762Z,41.22
2019-02-23T23:18:48.125Z,38.32
2019-02-23T23:21:18.168Z,38.82
2019-02-23T23:23:48.451Z,39.44
2019-02-23T23:26:18.503Z,38.99
2019-02-23T23:28:48.772Z,39.91
2019-02-23T23:31:18.732Z,40.38
2019-02-23T23:33:48.867Z,40.61
2019-02-23T23:36:18.887Z,39.88
2019-02-23T23:38:48.850Z,41.13
2019-02-23T23:41:18.860Z,39.74
2019-02-23T23:43:48.907Z,40.70
2019-02-23T23:46:18.992Z,39.61
2019-02-23T23:48:49.694Z,39.49
2019-02-23T23:51:19.624Z,39.46
2019-02-23T23:53:49.573Z,40.10
2019-02-23T23:56:19.547Z,42.26
2019-02-23T23:58:49.606Z,42.72
